EPLL/LCJ METAR and TAF weather

Enter ICAO airport designator
Station Type Date Time Source
EPLL METAR 2019/02/23 03:00 UTC NOAA

EPLL 230300Z VRB01KT CAVOK M07/M11 Q1043


Station Type Date Time Source
EPLL Decoded METAR 2019/02/23 03:00 UTC NOAA

Station name not available
Feb 22, 2019 - 10:00 PM EST / 2019.02.23 0300 UTC
Wind: Variable at 1 MPH (1 KT):0
Visibility: greater than 7 mile(s):0
Temperature: 19 F (-7 C)
Dew Point: 12 F (-11 C)
Relative Humidity: 73%
Pressure (altimeter): 30.80 in. Hg (1043 hPa)
ob: EPLL 230300Z VRB01KT CAVOK M07/M11 Q1043
cycle: 3

Station Type Date Time Source
EPLL TAF 2019/02/22 18:00 UTC NOAA

TAF EPLL 221730Z 2218/2318 01010KT CAVOK
BECMG 2300/2302 VRB02KT


Example: see airport list